Boca Raton, FL (33431)

1:36 AM EDT on July 29, 2016 (GMT -0400)
University Gardens | | Change Station

Elev 39 ft 26.39 °N, 80.09 °W | Updated 337 days ago

Partly Cloudy
Partly Cloudy
81 °F
Feels Like 86 °F
N
3
Wind Variable Wind from SW
Gusts mph

Today
High -- | Low -- °F
--% Chance of Precip.
Yesterday
High -- | Low -- °F
Precip. -- in
Pressure 30.05 in
Visibility 10.0 miles
Clouds Clear
Heat Index 86 °F
Dew Point 76 °F
Humidity 85%
Rainfall in
Snow Depth Not available.
6:44 AM 8:08 PM
Waning Crescent, 25% visible
METAR KPMP 290453Z AUTO 17004KT 10SM CLR 29/24 A3004 RMK AO2 SLP174 T02940244 403330283
Pressure 30.05 in
Visibility 10.0 miles
Clouds Clear
Heat Index 86 °F
Dew Point 76 °F
Humidity 85%
Rainfall in
Snow Depth Not available.
6:44 AM 8:08 PM
Waning Crescent, 25% visible
METAR KPMP 290453Z AUTO 17004KT 10SM CLR 29/24 A3004 RMK AO2 SLP174 T02940244 403330283

10-Day Weather Forecast

Almanac

Astronomy

Jul. 29, 2016 Rise Set
Actual Time
Civil Twilight
Nautical Twilight
Astronomical Twilight
Moon
Length of Visible Light
Length of Day
Tomorrow will be .
, % of the Moon is Illuminated

Today's Extremes

State Highs State Lows

Community

WunderPhotos

Upload Photos

1,928,299 photos uploaded!

WunderBlog® & News

Nearby

Air Quality

  Air Quality AQ Index Pollutant
Not available.

Snow Depth

Station Depth Elevation

Earthquake Activity

City Distance Mag. Time & Date
Minimum magnitude displayed is 2.5.

Coastal Water Temperatures

Place Temperature

Stations

Nearby Weather Stations

Station Location Temp. Windchill Dew Point Humidity Wind Precip. Elev Updated Type
                   

Watches & Warnings

There are currently no watches in effect.